createdAt,value
2024-04-06T00:00:46.971Z,60.5
2024-04-06T00:01:46.940Z,59.6
2024-04-06T00:02:46.971Z,59.5
2024-04-06T00:03:53.506Z,60
2024-04-06T00:04:46.943Z,59.9
2024-04-06T00:05:46.951Z,60.3
2024-04-06T00:06:46.977Z,60.7
2024-04-06T00:07:46.954Z,60.7
2024-04-06T00:08:46.977Z,60
2024-04-06T00:09:46.957Z,59.4
2024-04-06T00:10:46.940Z,59.2
2024-04-06T00:11:46.973Z,59.3
2024-04-06T00:12:46.993Z,58.9
2024-04-06T00:13:46.939Z,58.8
2024-04-06T00:14:46.972Z,57.7
2024-04-06T00:15:46.975Z,57.5
2024-04-06T00:16:46.973Z,56.6
2024-04-06T00:17:47.806Z,56.6
2024-04-06T00:18:46.948Z,57.2
2024-04-06T00:19:46.977Z,57.3
2024-04-06T00:20:46.970Z,55.5
2024-04-06T00:21:46.949Z,55.5
2024-04-06T00:22:46.976Z,54.9
2024-04-06T00:23:46.951Z,53.9
2024-04-06T00:24:46.994Z,53.9
2024-04-06T00:25:46.945Z,55.3
2024-04-06T00:26:46.980Z,54.7
2024-04-06T00:27:46.946Z,55.1
2024-04-06T00:28:46.987Z,55.5
2024-04-06T00:29:46.934Z,57.4
2024-04-06T00:30:46.942Z,57.5
2024-04-06T00:31:46.970Z,56.1
2024-04-06T00:32:46.980Z,56.8
2024-04-06T00:33:46.970Z,56.3
2024-04-06T00:34:46.968Z,58.1
2024-04-06T00:35:46.999Z,58.7
2024-04-06T00:36:46.973Z,61.3
2024-04-06T00:37:46.966Z,61.1
2024-04-06T00:38:46.980Z,60.5
2024-04-06T00:39:46.942Z,61.2
2024-04-06T00:40:46.980Z,60.9
2024-04-06T00:41:46.940Z,60
2024-04-06T00:42:46.979Z,60.1
2024-04-06T00:43:46.965Z,59.5
2024-04-06T00:44:46.962Z,59.6
2024-04-06T00:45:46.943Z,57.1
2024-04-06T00:46:46.937Z,60
2024-04-06T00:47:46.910Z,58.7
2024-04-06T00:48:46.938Z,57.6
2024-04-06T00:49:46.985Z,59.4
2024-04-06T00:50:46.944Z,58.1
2024-04-06T00:51:46.960Z,58.2
2024-04-06T00:52:46.975Z,59.3
2024-04-06T00:53:46.976Z,60.9
2024-04-06T00:54:46.989Z,59.4
2024-04-06T00:55:46.980Z,60.5
2024-04-06T00:56:46.966Z,60.1
2024-04-06T00:57:47.001Z,60.5
2024-04-06T00:58:46.967Z,61.5
2024-04-06T00:59:46.945Z,61.3
2024-04-06T01:00:46.991Z,60.3
2024-04-06T01:02:00.348Z,62.4
2024-04-06T01:02:46.918Z,62.1
2024-04-06T01:03:46.956Z,61.4
2024-04-06T01:04:46.953Z,61.6
2024-04-06T01:05:46.956Z,61.3
2024-04-06T01:06:46.949Z,61.5
2024-04-06T01:07:46.957Z,61.7
2024-04-06T01:08:46.974Z,61.6
2024-04-06T01:09:47.007Z,62
2024-04-06T01:10:46.981Z,62.9
2024-04-06T01:11:46.931Z,63.1
2024-04-06T01:12:46.978Z,63.1
2024-04-06T01:13:46.971Z,62.1
2024-04-06T01:14:46.958Z,63.5
2024-04-06T01:15:46.957Z,62.6
2024-04-06T01:16:46.977Z,62.4
2024-04-06T01:17:46.942Z,62.8
2024-04-06T01:18:46.909Z,63.3
2024-04-06T01:19:46.976Z,62.9
2024-04-06T01:20:47.004Z,62.9
2024-04-06T01:21:46.951Z,63.1
2024-04-06T01:22:46.975Z,63.3
2024-04-06T01:23:46.977Z,63.3
2024-04-06T01:24:46.966Z,63.1
2024-04-06T01:25:46.990Z,64.1
2024-04-06T01:26:46.966Z,63.4
2024-04-06T01:27:46.947Z,63.4
2024-04-06T01:28:46.942Z,63.3
2024-04-06T01:29:46.979Z,63.8
2024-04-06T01:30:46.991Z,63.9
2024-04-06T01:31:46.978Z,63.8
2024-04-06T01:32:46.963Z,63.9
2024-04-06T01:33:46.987Z,64.2
2024-04-06T01:34:46.976Z,64.4
2024-04-06T01:35:46.940Z,64.1
2024-04-06T01:36:46.954Z,64.8
2024-04-06T01:37:46.942Z,64.6
2024-04-06T01:38:46.985Z,64.2
2024-04-06T01:39:46.994Z,64.4
2024-04-06T01:40:46.975Z,64.5
2024-04-06T01:41:46.960Z,64.7
2024-04-06T01:42:46.945Z,65.3
2024-04-06T01:43:46.956Z,65.6
2024-04-06T01:44:46.969Z,65.3
2024-04-06T01:45:46.971Z,66
2024-04-06T01:46:46.960Z,65.4
2024-04-06T01:47:46.981Z,65.6
2024-04-06T01:48:46.979Z,65.4
2024-04-06T01:49:46.977Z,65.5
2024-04-06T01:50:46.956Z,65.1
2024-04-06T01:51:46.957Z,65.1
2024-04-06T01:52:46.976Z,65.3
2024-04-06T01:53:46.974Z,65.1
2024-04-06T01:54:46.972Z,65.1
2024-04-06T01:55:46.976Z,65.1
2024-04-06T01:56:46.980Z,65.3
2024-04-06T01:57:46.952Z,65.2
2024-04-06T01:58:46.978Z,65.1
2024-04-06T01:59:46.971Z,64.3
2024-04-06T02:00:46.989Z,64.8
2024-04-06T02:01:46.955Z,64.7
2024-04-06T02:02:50.294Z,65.4
2024-04-06T02:03:46.970Z,65.3
2024-04-06T02:04:46.969Z,65
2024-04-06T02:05:46.956Z,65.9
2024-04-06T02:06:46.982Z,64.8
2024-04-06T02:07:46.959Z,64.7
2024-04-06T02:08:46.953Z,65.4
2024-04-06T02:09:46.951Z,65.9
2024-04-06T02:10:46.945Z,65
2024-04-06T02:11:46.975Z,64.8
2024-04-06T02:12:46.971Z,64.6
2024-04-06T02:13:46.974Z,64.6
2024-04-06T02:14:46.942Z,64.2
2024-04-06T02:15:46.965Z,64.8
2024-04-06T02:16:46.951Z,64.8
2024-04-06T02:17:46.969Z,64.5
2024-04-06T02:18:46.977Z,65.7
2024-04-06T02:19:46.945Z,64
2024-04-06T02:20:46.979Z,64.8
2024-04-06T02:21:46.973Z,63.5
2024-04-06T02:22:46.947Z,63.3
2024-04-06T02:23:46.969Z,62.8
2024-04-06T02:24:46.944Z,62.4
2024-04-06T02:25:46.943Z,62.9
2024-04-06T02:26:46.978Z,62.2
2024-04-06T02:27:46.951Z,62.4
2024-04-06T02:28:46.938Z,62.6
2024-04-06T02:29:46.966Z,62.7
2024-04-06T02:30:46.961Z,62.2
2024-04-06T02:31:46.973Z,62.4
2024-04-06T02:32:46.904Z,62.6
2024-04-06T02:33:46.981Z,62.7
2024-04-06T02:34:46.978Z,63.4
2024-04-06T02:35:46.980Z,62.9
2024-04-06T02:36:46.957Z,63
2024-04-06T02:37:46.960Z,64.6
2024-04-06T02:38:46.916Z,63.9
2024-04-06T02:39:46.943Z,64.1
2024-04-06T02:40:46.975Z,63.4
2024-04-06T02:41:46.954Z,64.3
2024-04-06T02:42:46.960Z,64.1
2024-04-06T02:43:46.977Z,64.4
2024-04-06T02:44:46.954Z,64.6
2024-04-06T02:45:46.963Z,64.6
2024-04-06T02:46:46.975Z,64.2
2024-04-06T02:47:46.977Z,64.9
2024-04-06T02:48:46.973Z,64.3
2024-04-06T02:49:46.977Z,64.5
2024-04-06T02:50:46.956Z,64.2
2024-04-06T02:51:46.974Z,63.9
2024-04-06T02:52:46.964Z,63.7
2024-04-06T02:53:46.972Z,63.9
2024-04-06T02:54:46.963Z,64.2
2024-04-06T02:55:46.983Z,64.3
2024-04-06T02:56:46.971Z,64.1
2024-04-06T02:57:46.978Z,63.1
2024-04-06T02:58:46.956Z,63.9
2024-04-06T02:59:46.973Z,63.7
2024-04-06T03:00:46.984Z,63.8
2024-04-06T03:01:46.985Z,63.3
2024-04-06T03:02:46.942Z,63.6
2024-04-06T03:03:46.987Z,64.1
2024-04-06T03:04:46.978Z,64.4
2024-04-06T03:05:46.980Z,64.1
2024-04-06T03:06:46.982Z,65.4
2024-04-06T03:07:46.956Z,65.4
2024-04-06T03:08:46.981Z,64.2
2024-04-06T03:09:46.957Z,64.3
2024-04-06T03:10:46.975Z,65.2
2024-04-06T03:11:46.938Z,65.2
2024-04-06T03:12:46.964Z,64.3
2024-04-06T03:13:46.945Z,63.9
2024-04-06T03:14:46.962Z,64.4
2024-04-06T03:15:46.970Z,64.6
2024-04-06T03:16:46.941Z,65.2
2024-04-06T03:17:46.980Z,63.8
2024-04-06T03:18:46.956Z,65.1
2024-04-06T03:19:46.977Z,64.9
2024-04-06T03:20:46.981Z,64.7
2024-04-06T03:21:46.967Z,64.5
2024-04-06T03:22:46.976Z,65.3
2024-04-06T03:23:46.954Z,64.4
2024-04-06T03:24:46.976Z,65
2024-04-06T03:25:46.938Z,64.6
2024-04-06T03:26:46.960Z,65.3
2024-04-06T03:27:46.955Z,64.6
2024-04-06T03:28:46.936Z,63.1
2024-04-06T03:29:46.938Z,62.7
2024-04-06T03:30:46.976Z,63.3
2024-04-06T03:31:46.980Z,62.7
2024-04-06T03:32:46.960Z,61.5
2024-04-06T03:33:46.935Z,62.2
2024-04-06T03:34:46.950Z,61.8
2024-04-06T03:35:47.010Z,61.6
2024-04-06T03:36:46.990Z,61.3
2024-04-06T03:37:46.952Z,61.5
2024-04-06T03:38:46.923Z,61.5
2024-04-06T03:39:46.974Z,61.4
2024-04-06T03:40:46.936Z,61.8
2024-04-06T03:41:46.949Z,61.6
2024-04-06T03:42:46.959Z,61.8
2024-04-06T03:43:46.976Z,61.9
2024-04-06T03:44:46.962Z,61.8
2024-04-06T03:45:46.975Z,61.7
2024-04-06T03:46:46.937Z,60.8
2024-04-06T03:47:46.975Z,61.4
2024-04-06T03:48:46.956Z,60.7
2024-04-06T03:49:46.958Z,61.5
2024-04-06T03:50:46.954Z,60.6
2024-04-06T03:51:46.958Z,60.3
2024-04-06T03:52:46.999Z,60.1
2024-04-06T03:53:46.979Z,60.5
2024-04-06T03:54:46.983Z,60.6
2024-04-06T03:55:46.972Z,60
2024-04-06T03:56:46.937Z,59.4
2024-04-06T03:57:46.986Z,59.7
2024-04-06T03:58:46.972Z,59.4
2024-04-06T03:59:46.977Z,58.9
2024-04-06T04:00:46.954Z,58.5
2024-04-06T04:01:46.977Z,57.8
2024-04-06T04:02:46.960Z,58.5
2024-04-06T04:03:46.954Z,58
2024-04-06T04:04:46.937Z,58.4
2024-04-06T04:05:46.973Z,58.8
2024-04-06T04:06:46.952Z,56.7
2024-04-06T04:07:46.919Z,56.1
2024-04-06T04:08:46.980Z,56.4
2024-04-06T04:09:46.967Z,56.5
2024-04-06T04:10:46.952Z,55.9
2024-04-06T04:11:46.933Z,56.9
2024-04-06T04:12:46.965Z,57.1
2024-04-06T04:13:46.996Z,56.4
2024-04-06T04:14:46.951Z,56.7
2024-04-06T04:15:46.962Z,57.4
2024-04-06T04:16:46.969Z,59.7
2024-04-06T04:17:46.954Z,60.6
2024-04-06T04:18:46.971Z,61.6
2024-04-06T04:19:46.942Z,61.1
2024-04-06T04:20:46.982Z,58.9
2024-04-06T04:21:46.972Z,60.3
2024-04-06T04:22:46.955Z,59.3
2024-04-06T04:23:46.977Z,58.7
2024-04-06T04:24:46.977Z,56.9
2024-04-06T04:25:46.957Z,56.8
2024-04-06T04:26:46.947Z,56.2
2024-04-06T04:27:46.994Z,55.3
2024-04-06T04:28:46.939Z,55.8
2024-04-06T04:29:46.973Z,54.7
2024-04-06T04:30:46.918Z,55.2
2024-04-06T04:31:46.953Z,55.1
2024-04-06T04:32:46.978Z,55.2
2024-04-06T04:33:46.962Z,54.9
2024-04-06T04:34:46.972Z,56
2024-04-06T04:35:46.958Z,55.8
2024-04-06T04:36:46.947Z,55.6
2024-04-06T04:37:46.940Z,54.5
2024-04-06T04:38:46.955Z,56.8
2024-04-06T04:39:46.986Z,59.4
2024-04-06T04:40:46.962Z,62
2024-04-06T04:41:46.975Z,63.2
2024-04-06T04:42:46.983Z,62.1
2024-04-06T04:43:46.960Z,63.3
2024-04-06T04:44:53.243Z,63.4
2024-04-06T04:45:46.983Z,64.4
2024-04-06T04:46:46.978Z,65.3
2024-04-06T04:47:46.940Z,65.7
2024-04-06T04:48:46.994Z,65.7
2024-04-06T04:49:46.977Z,65.5
2024-04-06T04:50:46.973Z,65.2
2024-04-06T04:51:46.940Z,65.4
2024-04-06T04:52:46.924Z,64.8
2024-04-06T04:53:46.924Z,65
2024-04-06T04:54:46.966Z,64.7
2024-04-06T04:55:46.987Z,64.1
2024-04-06T04:56:46.983Z,64.1
2024-04-06T04:57:46.959Z,63.8
2024-04-06T04:58:46.943Z,63.9
2024-04-06T04:59:46.942Z,64.3
2024-04-06T05:00:46.995Z,63.9
2024-04-06T05:01:47.631Z,64.2
2024-04-06T05:02:46.985Z,64.2
2024-04-06T05:03:46.937Z,64.6
2024-04-06T05:04:46.980Z,66.2
2024-04-06T05:05:46.984Z,66.7
2024-04-06T05:06:46.966Z,67.2
2024-04-06T05:07:46.985Z,66.8
2024-04-06T05:08:46.962Z,66.4
2024-04-06T05:09:46.983Z,66.5
2024-04-06T05:10:46.995Z,66.6
2024-04-06T05:11:46.981Z,66.6
2024-04-06T05:12:46.985Z,67.1
2024-04-06T05:13:46.983Z,67.1
2024-04-06T05:14:46.939Z,67.1
2024-04-06T05:15:46.961Z,67.3
2024-04-06T05:16:46.960Z,67.4
2024-04-06T05:17:46.961Z,66.9
2024-04-06T05:18:46.976Z,66.8
2024-04-06T05:19:46.958Z,67.5
2024-04-06T05:20:46.987Z,68
2024-04-06T05:21:46.928Z,67.3
2024-04-06T05:22:46.988Z,67.5
2024-04-06T05:23:46.978Z,67.6
2024-04-06T05:24:46.982Z,68.7
2024-04-06T05:25:46.958Z,69.1
2024-04-06T05:26:46.958Z,68.2
2024-04-06T05:27:46.981Z,68
2024-04-06T05:28:46.962Z,68.7
2024-04-06T05:29:46.972Z,69.8
2024-04-06T05:30:46.982Z,70.1
2024-04-06T05:31:46.963Z,70.6
2024-04-06T05:32:46.972Z,70.9
2024-04-06T05:33:46.956Z,70.9
2024-04-06T05:34:46.959Z,70.3
2024-04-06T05:35:46.962Z,70.7
2024-04-06T05:36:46.948Z,70.6
2024-04-06T05:37:46.981Z,70.9
2024-04-06T05:38:46.959Z,71.1
2024-04-06T05:39:46.945Z,71.2
2024-04-06T05:40:46.975Z,71.1
2024-04-06T05:41:46.942Z,70.8
2024-04-06T05:42:46.973Z,71.2
2024-04-06T05:43:46.973Z,71.2
2024-04-06T05:44:46.954Z,71
2024-04-06T05:45:46.987Z,71.6
2024-04-06T05:46:46.965Z,71.5
2024-04-06T05:47:46.968Z,71.5
2024-04-06T05:48:46.968Z,71.1
2024-04-06T05:49:46.965Z,71.4
2024-04-06T05:50:47.001Z,71.6
2024-04-06T05:51:46.958Z,71.6
2024-04-06T05:52:46.956Z,72.9
2024-04-06T05:53:46.978Z,72.2
2024-04-06T05:54:46.979Z,71.6
2024-04-06T05:55:46.952Z,71.1
2024-04-06T05:56:46.958Z,71.2
2024-04-06T05:57:46.972Z,70.9
2024-04-06T05:58:46.963Z,71
2024-04-06T05:59:46.973Z,69.6
2024-04-06T06:00:46.951Z,69.5
2024-04-06T06:01:46.980Z,68.8
2024-04-06T06:02:46.939Z,69.1
2024-04-06T06:03:46.941Z,68.9
2024-04-06T06:04:46.999Z,68.4
2024-04-06T06:05:46.964Z,67.9
2024-04-06T06:06:46.960Z,67.6
2024-04-06T06:07:46.982Z,67.6
2024-04-06T06:08:46.960Z,67.3
2024-04-06T06:09:46.980Z,67.4
2024-04-06T06:10:46.960Z,67.9
2024-04-06T06:11:46.974Z,67.8
2024-04-06T06:12:46.945Z,68
2024-04-06T06:13:46.972Z,67.8
2024-04-06T06:14:46.973Z,66.4
2024-04-06T06:15:46.958Z,66.3
2024-04-06T06:16:46.975Z,66.3
2024-04-06T06:17:46.955Z,65.9
2024-04-06T06:18:46.986Z,65.7
2024-04-06T06:19:46.963Z,65.2
2024-04-06T06:20:46.976Z,64.5
2024-04-06T06:21:46.959Z,64
2024-04-06T06:22:46.953Z,64.7
2024-04-06T06:23:46.958Z,64
2024-04-06T06:24:46.928Z,63.8
2024-04-06T06:25:46.959Z,63.9
2024-04-06T06:26:46.983Z,65.4
2024-04-06T06:27:47.482Z,65.4
2024-04-06T06:28:46.960Z,64.5
2024-04-06T06:29:46.984Z,66.4
2024-04-06T06:30:46.957Z,66.2
2024-04-06T06:31:46.965Z,66
2024-04-06T06:32:46.979Z,64.6
2024-04-06T06:33:46.982Z,64.6
2024-04-06T06:34:46.962Z,64
2024-04-06T06:40:47.057Z,65.6
2024-04-06T06:41:46.970Z,63.9
2024-04-06T06:42:46.942Z,65.4
2024-04-06T06:43:46.975Z,65.8
2024-04-06T06:44:46.918Z,64.5
2024-04-06T06:45:46.982Z,64.7
2024-04-06T06:46:46.965Z,63.8
2024-04-06T06:47:46.984Z,64.3
2024-04-06T06:48:46.941Z,62.9
2024-04-06T06:49:46.961Z,62.4
2024-04-06T06:50:46.934Z,63.8
2024-04-06T06:51:46.979Z,60.7
2024-04-06T06:52:46.970Z,59
2024-04-06T06:53:46.964Z,58.9
2024-04-06T06:54:46.985Z,59.6
2024-04-06T06:55:46.984Z,59.6
2024-04-06T06:56:46.938Z,58.2
2024-04-06T06:57:46.961Z,61
2024-04-06T06:58:46.966Z,58.1
2024-04-06T07:00:47.026Z,57.2
2024-04-06T07:01:46.921Z,56.6
2024-04-06T07:02:46.945Z,57.3
2024-04-06T07:03:46.980Z,56.9
2024-04-06T07:04:46.967Z,56
2024-04-06T07:05:46.942Z,56.4
2024-04-06T07:07:46.971Z,56.8
2024-04-06T07:09:02.423Z,57.6
2024-04-06T07:09:46.980Z,57.9
2024-04-06T07:10:46.923Z,58.2
2024-04-06T07:11:46.975Z,56
2024-04-06T07:12:46.985Z,56.9
2024-04-06T07:13:46.960Z,55.5
2024-04-06T07:14:46.972Z,56.7
2024-04-06T07:15:46.987Z,56.7
2024-04-06T07:16:46.981Z,58
2024-04-06T07:17:46.963Z,57.2
2024-04-06T07:18:46.974Z,58.3
2024-04-06T07:19:46.940Z,56.7
2024-04-06T07:20:46.957Z,56
2024-04-06T07:21:46.980Z,56.4
2024-04-06T07:22:46.976Z,56.1
2024-04-06T07:23:46.967Z,56.6
2024-04-06T07:24:46.963Z,58.3
2024-04-06T07:25:47.622Z,57.6
2024-04-06T07:26:46.986Z,60.3
2024-04-06T07:27:46.982Z,58.9
2024-04-06T07:28:46.963Z,60.5
2024-04-06T07:29:46.962Z,59.4
2024-04-06T07:30:46.983Z,60.1
2024-04-06T07:31:46.989Z,58.1
2024-04-06T07:32:46.984Z,59
2024-04-06T07:33:46.960Z,57.2
2024-04-06T07:34:46.950Z,59.5
2024-04-06T07:35:46.989Z,60.8
2024-04-06T07:36:46.942Z,61.5
2024-04-06T07:37:46.940Z,59.9
2024-04-06T07:39:46.984Z,59.7
2024-04-06T07:40:46.990Z,61.5
2024-04-06T07:41:46.992Z,59.6
2024-04-06T07:42:46.960Z,58.3
2024-04-06T07:43:46.983Z,58.9
2024-04-06T07:44:46.991Z,58.5
2024-04-06T07:45:46.938Z,59
2024-04-06T07:46:46.984Z,60.7
2024-04-06T07:47:46.994Z,58.2
2024-04-06T07:48:46.974Z,60
2024-04-06T07:49:46.964Z,57.6
2024-04-06T07:50:46.936Z,54.6
2024-04-06T07:51:46.931Z,55.9
2024-04-06T07:52:46.982Z,57
2024-04-06T07:53:46.958Z,54.7
2024-04-06T07:54:46.949Z,54.8
2024-04-06T07:55:47.001Z,55.1
2024-04-06T07:56:46.984Z,54.1
2024-04-06T07:57:46.991Z,53.6
2024-04-06T07:58:46.959Z,52.4
2024-04-06T07:59:46.962Z,50.3
2024-04-06T08:00:46.938Z,52.2
2024-04-06T08:01:46.945Z,51.1
2024-04-06T08:02:46.966Z,54.2
2024-04-06T08:03:46.977Z,53.8
2024-04-06T08:04:46.940Z,54.9
2024-04-06T08:05:46.985Z,53.4
2024-04-06T08:06:46.964Z,54.3
2024-04-06T08:07:46.925Z,51.4
2024-04-06T08:08:46.968Z,51.9
2024-04-06T08:09:46.979Z,52.2
2024-04-06T08:10:46.937Z,51.7
2024-04-06T08:11:46.967Z,52.6
2024-04-06T08:12:46.991Z,51.4
2024-04-06T08:13:46.962Z,52.8
2024-04-06T08:14:46.941Z,51.1
2024-04-06T08:15:46.956Z,52.9
2024-04-06T08:16:46.981Z,51
2024-04-06T08:17:46.975Z,51
2024-04-06T08:18:46.960Z,53.1
2024-04-06T08:19:46.961Z,53.8
2024-04-06T08:20:46.974Z,54.5
2024-04-06T08:21:46.931Z,56.2
2024-04-06T08:22:46.980Z,54
2024-04-06T08:23:46.958Z,52.7
2024-04-06T08:24:46.938Z,52.8
2024-04-06T08:25:46.977Z,53.5
2024-04-06T08:26:46.939Z,53.3
2024-04-06T08:27:46.947Z,53.8
2024-04-06T08:28:46.974Z,54.2
2024-04-06T08:29:46.962Z,53.1
2024-04-06T08:30:46.975Z,53.8
2024-04-06T08:31:46.970Z,52.8
2024-04-06T08:32:46.980Z,53.6
2024-04-06T08:33:46.979Z,53.7
2024-04-06T08:34:46.980Z,53.8
2024-04-06T08:35:46.968Z,54.8
2024-04-06T08:36:46.984Z,54.9
2024-04-06T08:37:46.975Z,54.7
2024-04-06T08:38:46.960Z,53.4
2024-04-06T08:39:47.001Z,52.7
2024-04-06T08:40:46.980Z,53.3
2024-04-06T08:41:46.954Z,51
2024-04-06T08:42:46.956Z,51.2
2024-04-06T08:43:46.942Z,52.3
2024-04-06T08:44:46.973Z,50.5
2024-04-06T08:45:46.982Z,50.9
2024-04-06T08:46:46.978Z,49.3
2024-04-06T08:47:46.945Z,49.9
2024-04-06T08:48:46.993Z,51.5
2024-04-06T08:49:46.980Z,49.9
2024-04-06T08:50:46.944Z,50
2024-04-06T08:51:46.921Z,48.7
2024-04-06T08:52:46.956Z,49.7
2024-04-06T08:53:46.974Z,49.5
2024-04-06T08:54:46.982Z,49.5
2024-04-06T08:55:46.940Z,48.1
2024-04-06T08:56:46.987Z,49.7
2024-04-06T08:57:46.978Z,49.1
2024-04-06T08:58:46.974Z,48.3
2024-04-06T08:59:46.981Z,45.6
2024-04-06T09:00:46.962Z,47.6
2024-04-06T09:01:46.960Z,47
2024-04-06T09:02:46.982Z,47.4
2024-04-06T09:03:46.976Z,48.7
2024-04-06T09:04:46.978Z,48
2024-04-06T09:05:46.973Z,49.2
2024-04-06T09:06:46.980Z,49.5
2024-04-06T09:07:46.947Z,50
2024-04-06T09:08:46.960Z,49.2
2024-04-06T09:09:46.960Z,51.2
2024-04-06T09:10:46.965Z,49.9
2024-04-06T09:11:46.920Z,47.7
2024-04-06T09:12:46.980Z,47.4
2024-04-06T09:13:46.972Z,47.8
2024-04-06T09:14:46.989Z,48.9
2024-04-06T09:15:46.975Z,49.2
2024-04-06T09:16:46.983Z,48.5
2024-04-06T09:17:46.977Z,49.3
2024-04-06T09:18:46.989Z,50.2
2024-04-06T09:19:46.989Z,50.5
2024-04-06T09:20:46.962Z,50.5
2024-04-06T09:21:46.958Z,50.2
2024-04-06T09:22:46.969Z,50.3
2024-04-06T09:23:46.962Z,50.4
2024-04-06T09:24:46.936Z,50.2
2024-04-06T09:25:46.956Z,50.9
2024-04-06T09:26:46.996Z,51.1
2024-04-06T09:27:46.998Z,51.6
2024-04-06T09:28:46.990Z,51.8
2024-04-06T09:29:46.959Z,50.8
2024-04-06T09:30:46.966Z,51.1
2024-04-06T09:31:46.983Z,50.7
2024-04-06T09:32:46.986Z,51
2024-04-06T09:33:46.981Z,51.3
2024-04-06T09:34:46.941Z,50.4
2024-04-06T09:35:46.961Z,50.9
2024-04-06T09:36:46.982Z,51.3
2024-04-06T09:37:46.943Z,51.1
2024-04-06T09:38:46.989Z,49.9
2024-04-06T09:39:46.969Z,50
2024-04-06T09:40:47.000Z,49.2
2024-04-06T09:41:46.965Z,49.2
2024-04-06T09:42:46.983Z,50.1
2024-04-06T09:43:46.999Z,49.3
2024-04-06T09:44:46.958Z,49
2024-04-06T09:45:46.971Z,49.1
2024-04-06T09:46:46.939Z,48.9
2024-04-06T09:47:46.935Z,50.1
2024-04-06T09:48:46.948Z,50.5
2024-04-06T09:49:46.977Z,49.6
2024-04-06T09:50:46.975Z,50.7
2024-04-06T09:51:46.949Z,50.1
2024-04-06T09:52:46.967Z,49.5
2024-04-06T09:53:46.936Z,50.4
2024-04-06T09:54:46.972Z,51.3
2024-04-06T09:55:46.997Z,51.1
2024-04-06T09:56:46.984Z,51
2024-04-06T09:57:46.976Z,50.3
2024-04-06T09:58:46.950Z,50.1
2024-04-06T09:59:46.973Z,50.1
2024-04-06T10:00:46.985Z,50.3
2024-04-06T10:01:46.938Z,50.4
2024-04-06T10:02:46.952Z,50.6
2024-04-06T10:03:46.966Z,45.5
2024-04-06T10:04:46.969Z,45.9
2024-04-06T10:05:46.969Z,45.9
2024-04-06T10:06:46.927Z,47
2024-04-06T10:07:46.972Z,44
2024-04-06T10:08:46.939Z,43.7
2024-04-06T10:09:46.983Z,44
2024-04-06T10:10:46.933Z,45.5
2024-04-06T10:11:46.968Z,44.1
2024-04-06T10:12:46.957Z,45.1
2024-04-06T10:13:46.976Z,44.1
2024-04-06T10:14:46.978Z,43.8
2024-04-06T10:15:46.942Z,45
2024-04-06T10:16:46.953Z,45.7
2024-04-06T10:17:46.973Z,44.7
2024-04-06T10:18:46.975Z,44.9
2024-04-06T10:19:46.974Z,46.8
2024-04-06T10:20:46.958Z,44.4
2024-04-06T10:21:46.970Z,45
2024-04-06T10:22:46.932Z,45.7
2024-04-06T10:23:46.979Z,44.4
2024-04-06T10:24:46.971Z,44.6
2024-04-06T10:25:46.975Z,42.2
2024-04-06T10:26:46.972Z,42.9
2024-04-06T10:27:46.923Z,43.2
2024-04-06T10:28:46.964Z,44.3
2024-04-06T10:29:46.954Z,43.3
2024-04-06T10:30:46.967Z,43.6
2024-04-06T10:31:47.852Z,44.2
2024-04-06T10:32:46.949Z,44.3
2024-04-06T10:33:46.939Z,44.4
2024-04-06T10:34:50.891Z,43.9
2024-04-06T10:35:46.978Z,43.8
2024-04-06T10:36:46.985Z,44.3
2024-04-06T10:37:46.961Z,44.6
2024-04-06T10:38:46.955Z,43.6
2024-04-06T10:39:46.981Z,43.6
2024-04-06T10:40:46.977Z,42.8
2024-04-06T10:41:46.956Z,43.6
2024-04-06T10:42:46.940Z,44.5
2024-04-06T10:43:46.935Z,43.8
2024-04-06T10:44:46.974Z,42.1
2024-04-06T10:45:46.977Z,42.7
2024-04-06T10:46:46.973Z,43.7
2024-04-06T10:47:46.980Z,44.9
2024-04-06T10:48:46.962Z,43.5
2024-04-06T10:49:46.956Z,43.1
2024-04-06T10:50:46.979Z,43
2024-04-06T10:51:46.956Z,43.8
2024-04-06T10:52:46.996Z,43.6
2024-04-06T10:53:46.975Z,43.7
2024-04-06T10:54:46.982Z,43.8
2024-04-06T10:55:46.978Z,42
2024-04-06T10:56:46.977Z,43.2
2024-04-06T10:57:46.976Z,43.3
2024-04-06T10:58:46.978Z,43.3
2024-04-06T10:59:46.942Z,42.4
2024-04-06T11:00:46.977Z,41.5
2024-04-06T11:01:46.967Z,42.7
2024-04-06T11:02:46.953Z,42
2024-04-06T11:03:46.960Z,42.5
2024-04-06T11:04:46.952Z,42.4
2024-04-06T11:05:46.946Z,42.1
2024-04-06T11:06:46.978Z,41.6
2024-04-06T11:07:46.972Z,41.9
2024-04-06T11:08:46.938Z,41.9
2024-04-06T11:09:46.956Z,42.5
2024-04-06T11:10:46.971Z,42.9
2024-04-06T11:11:46.967Z,43.1
2024-04-06T11:12:46.957Z,40.4
2024-04-06T11:13:46.985Z,41.6
2024-04-06T11:14:46.956Z,41.7
2024-04-06T11:15:46.935Z,42.7
2024-04-06T11:16:46.962Z,43.9
2024-04-06T11:17:46.977Z,44.1
2024-04-06T11:18:47.008Z,42.9
2024-04-06T11:19:46.970Z,39.6
2024-04-06T11:20:46.985Z,40.4
2024-04-06T11:21:46.985Z,38.8
2024-04-06T11:22:46.977Z,37.6
2024-04-06T11:23:46.947Z,36.7
2024-04-06T11:24:46.968Z,36.6
2024-04-06T11:25:46.975Z,36.1
2024-04-06T11:26:46.970Z,36.3
2024-04-06T11:27:46.976Z,35.9
2024-04-06T11:28:46.979Z,36
2024-04-06T11:29:46.959Z,36.2
2024-04-06T11:30:46.955Z,37.5
2024-04-06T11:31:46.953Z,37.2
2024-04-06T11:32:46.961Z,37.4
2024-04-06T11:33:47.013Z,37.9
2024-04-06T11:34:46.963Z,37.4
2024-04-06T11:35:46.978Z,37.8
2024-04-06T11:36:46.957Z,37.8
2024-04-06T11:37:46.949Z,38.2
2024-04-06T11:38:46.955Z,37.8
2024-04-06T11:39:46.963Z,37
2024-04-06T11:40:46.983Z,37.1
2024-04-06T11:41:46.952Z,36.7
2024-04-06T11:42:46.957Z,39
2024-04-06T11:43:46.973Z,39.8
2024-04-06T11:44:46.989Z,40.7
2024-04-06T11:45:46.984Z,41.1
2024-04-06T11:46:46.982Z,41
2024-04-06T11:47:46.976Z,42.5
2024-04-06T11:48:46.950Z,41.3
2024-04-06T11:49:46.968Z,42
2024-04-06T11:50:46.948Z,42
2024-04-06T11:51:46.933Z,41.9
2024-04-06T11:52:46.958Z,41.5
2024-04-06T11:53:50.310Z,42
2024-04-06T11:54:46.922Z,40.8
2024-04-06T11:55:46.966Z,40.4
2024-04-06T11:56:46.988Z,39
2024-04-06T11:57:46.977Z,38
2024-04-06T11:58:46.976Z,40.2
2024-04-06T11:59:46.957Z,42
2024-04-06T12:00:46.961Z,41.8
2024-04-06T12:01:46.982Z,41.1
2024-04-06T12:02:46.962Z,39.3
2024-04-06T12:03:46.952Z,40.8
2024-04-06T12:04:46.958Z,40.4
2024-04-06T12:05:46.968Z,41.5
2024-04-06T12:06:46.977Z,40.9
2024-04-06T12:07:46.992Z,41.2
2024-04-06T12:08:46.973Z,39
2024-04-06T12:09:46.973Z,39.7
2024-04-06T12:10:47.006Z,40.3
2024-04-06T12:11:46.995Z,39.2
2024-04-06T12:12:46.985Z,38.7
2024-04-06T12:13:46.992Z,38.5
2024-04-06T12:14:46.986Z,37.9
2024-04-06T12:15:46.980Z,37.3
2024-04-06T12:16:46.985Z,37.2
2024-04-06T12:17:46.959Z,37.6
2024-04-06T12:18:46.928Z,37.4
2024-04-06T12:19:46.994Z,38.4
2024-04-06T12:20:46.978Z,38.5
2024-04-06T12:21:46.972Z,39.4
2024-04-06T12:22:46.976Z,38.1
2024-04-06T12:23:46.975Z,37.6
2024-04-06T12:24:46.956Z,38.5
2024-04-06T12:25:46.939Z,37.9
2024-04-06T12:26:46.958Z,37.7
2024-04-06T12:27:46.973Z,38.9
2024-04-06T12:28:46.952Z,38.5
2024-04-06T12:29:46.956Z,38.7
2024-04-06T12:30:46.951Z,37.8
2024-04-06T12:31:46.975Z,39.1
2024-04-06T12:32:46.954Z,39.6
2024-04-06T12:33:46.977Z,39.1
2024-04-06T12:34:46.974Z,37
2024-04-06T12:35:46.939Z,38.6
2024-04-06T12:36:46.977Z,39.2
2024-04-06T12:37:46.970Z,38.5
2024-04-06T12:38:46.979Z,37.8
2024-04-06T12:39:46.959Z,38.3
2024-04-06T12:40:46.940Z,37.8
2024-04-06T12:41:46.975Z,37.9
2024-04-06T12:42:46.922Z,36.7
2024-04-06T12:43:46.976Z,37.4
2024-04-06T12:44:46.942Z,38.3
2024-04-06T12:45:46.970Z,36.5
2024-04-06T12:46:46.986Z,37.1
2024-04-06T12:47:46.964Z,37.5
2024-04-06T12:48:46.936Z,36.7
2024-04-06T12:49:46.975Z,37.6
2024-04-06T12:50:46.957Z,37.4
2024-04-06T12:51:46.955Z,38.1
2024-04-06T12:52:46.979Z,37.4
2024-04-06T12:53:46.949Z,37.3
2024-04-06T12:54:46.959Z,36.7
2024-04-06T12:55:46.941Z,38.3
2024-04-06T12:56:49.744Z,36.1
2024-04-06T12:57:46.977Z,37.2
2024-04-06T12:58:46.971Z,36.5
2024-04-06T12:59:46.975Z,37.7
2024-04-06T13:00:46.981Z,37.6
2024-04-06T13:01:46.994Z,37.5
2024-04-06T13:02:46.953Z,37.9
2024-04-06T13:03:56.534Z,37.3
2024-04-06T13:04:46.971Z,37.7
2024-04-06T13:05:46.977Z,37
2024-04-06T13:06:46.948Z,36.9
2024-04-06T13:07:50.485Z,37.3
2024-04-06T13:08:46.975Z,38.3
2024-04-06T13:09:46.966Z,37.5
2024-04-06T13:10:46.967Z,38.1
2024-04-06T13:11:46.957Z,36.4
2024-04-06T13:12:46.972Z,36.1
2024-04-06T13:13:46.967Z,35.1
2024-04-06T13:14:46.976Z,36.7
2024-04-06T13:15:46.980Z,35.7
2024-04-06T13:16:46.975Z,35.8
2024-04-06T13:17:46.983Z,36.1
2024-04-06T13:18:46.974Z,36.8
2024-04-06T13:19:46.975Z,36.5
2024-04-06T13:20:46.981Z,36
2024-04-06T13:21:46.947Z,37
2024-04-06T13:22:46.968Z,38
2024-04-06T13:23:46.962Z,36.1
2024-04-06T13:24:46.957Z,35.7
2024-04-06T13:25:46.982Z,36.5
2024-04-06T13:26:46.980Z,35.9
2024-04-06T13:27:46.960Z,37.2
2024-04-06T13:28:46.960Z,35.9
2024-04-06T13:29:46.978Z,35.7
2024-04-06T13:30:46.972Z,35.1
2024-04-06T13:31:46.989Z,34.8